sensor_id;sensor_type;location;lat;lon;timestamp;P1;durP1;ratioP1;P2;durP2;ratioP2
5937;SDS011;2994;51.220;4.412;2023-03-21T00:01:53;8.07;;;6.30;;
5937;SDS011;2994;51.220;4.412;2023-03-21T00:04:20;8.00;;;7.07;;
5937;SDS011;2994;51.220;4.412;2023-03-21T00:06:46;7.00;;;6.27;;
5937;SDS011;2994;51.220;4.412;2023-03-21T00:09:12;7.87;;;6.20;;
5937;SDS011;2994;51.220;4.412;2023-03-21T00:11:37;11.63;;;7.57;;
5937;SDS011;2994;51.220;4.412;2023-03-21T00:14:03;10.30;;;5.87;;
5937;SDS011;2994;51.220;4.412;2023-03-21T00:16:29;9.70;;;7.17;;
5937;SDS011;2994;51.220;4.412;2023-03-21T00:18:55;9.67;;;6.47;;
5937;SDS011;2994;51.220;4.412;2023-03-21T00:21:21;9.93;;;6.60;;
5937;SDS011;2994;51.220;4.412;2023-03-21T00:23:53;6.83;;;5.53;;
5937;SDS011;2994;51.220;4.412;2023-03-21T00:26:19;10.47;;;5.40;;
5937;SDS011;2994;51.220;4.412;2023-03-21T00:28:46;6.63;;;5.77;;
5937;SDS011;2994;51.220;4.412;2023-03-21T00:31:12;9.43;;;6.00;;
5937;SDS011;2994;51.220;4.412;2023-03-21T00:33:38;9.20;;;6.67;;
5937;SDS011;2994;51.220;4.412;2023-03-21T00:36:04;8.00;;;6.13;;
5937;SDS011;2994;51.220;4.412;2023-03-21T00:38:30;7.40;;;5.30;;
5937;SDS011;2994;51.220;4.412;2023-03-21T00:40:56;6.60;;;5.50;;
5937;SDS011;2994;51.220;4.412;2023-03-21T00:43:21;12.03;;;6.47;;
5937;SDS011;2994;51.220;4.412;2023-03-21T00:45:53;8.17;;;5.20;;
5937;SDS011;2994;51.220;4.412;2023-03-21T00:48:20;9.27;;;5.67;;
5937;SDS011;2994;51.220;4.412;2023-03-21T00:50:46;9.70;;;5.93;;
5937;SDS011;2994;51.220;4.412;2023-03-21T00:53:13;7.77;;;5.90;;
5937;SDS011;2994;51.220;4.412;2023-03-21T00:55:39;8.93;;;5.50;;
5937;SDS011;2994;51.220;4.412;2023-03-21T00:58:05;8.20;;;6.27;;
5937;SDS011;2994;51.220;4.412;2023-03-21T01:00:31;8.27;;;6.30;;
5937;SDS011;2994;51.220;4.412;2023-03-21T01:02:58;6.83;;;6.10;;
5937;SDS011;2994;51.220;4.412;2023-03-21T01:05:30;6.60;;;5.10;;
5937;SDS011;2994;51.220;4.412;2023-03-21T01:08:16;8.73;;;6.33;;
5937;SDS011;2994;51.220;4.412;2023-03-21T01:10:44;8.77;;;6.13;;
5937;SDS011;2994;51.220;4.412;2023-03-21T01:13:11;10.37;;;6.30;;
5937;SDS011;2994;51.220;4.412;2023-03-21T01:15:45;11.73;;;6.20;;
5937;SDS011;2994;51.220;4.412;2023-03-21T01:18:12;7.03;;;5.60;;
5937;SDS011;2994;51.220;4.412;2023-03-21T01:20:40;12.23;;;6.07;;
5937;SDS011;2994;51.220;4.412;2023-03-21T01:23:07;7.83;;;6.00;;
5937;SDS011;2994;51.220;4.412;2023-03-21T01:25:33;10.60;;;5.67;;
5937;SDS011;2994;51.220;4.412;2023-03-21T01:27:59;7.87;;;6.70;;
5937;SDS011;2994;51.220;4.412;2023-03-21T01:30:24;14.70;;;7.40;;
5937;SDS011;2994;51.220;4.412;2023-03-21T01:32:50;10.30;;;6.60;;
5937;SDS011;2994;51.220;4.412;2023-03-21T01:35:15;7.20;;;6.23;;
5937;SDS011;2994;51.220;4.412;2023-03-21T01:37:41;9.17;;;6.20;;
5937;SDS011;2994;51.220;4.412;2023-03-21T01:40:07;8.03;;;5.80;;
5937;SDS011;2994;51.220;4.412;2023-03-21T01:42:36;6.67;;;5.47;;
5937;SDS011;2994;51.220;4.412;2023-03-21T01:45:05;8.17;;;6.37;;
5937;SDS011;2994;51.220;4.412;2023-03-21T01:47:50;8.47;;;5.90;;
5937;SDS011;2994;51.220;4.412;2023-03-21T01:50:16;10.23;;;5.80;;
5937;SDS011;2994;51.220;4.412;2023-03-21T01:52:46;7.70;;;5.67;;
5937;SDS011;2994;51.220;4.412;2023-03-21T01:55:14;6.93;;;5.03;;
5937;SDS011;2994;51.220;4.412;2023-03-21T01:57:45;7.83;;;5.80;;
5937;SDS011;2994;51.220;4.412;2023-03-21T02:00:13;9.53;;;6.37;;
5937;SDS011;2994;51.220;4.412;2023-03-21T02:02:42;8.10;;;5.10;;
5937;SDS011;2994;51.220;4.412;2023-03-21T02:05:20;9.20;;;5.80;;
5937;SDS011;2994;51.220;4.412;2023-03-21T02:07:50;7.43;;;5.53;;
5937;SDS011;2994;51.220;4.412;2023-03-21T02:10:16;9.10;;;6.77;;
5937;SDS011;2994;51.220;4.412;2023-03-21T02:12:42;7.20;;;6.47;;
5937;SDS011;2994;51.220;4.412;2023-03-21T02:15:08;8.77;;;6.87;;
5937;SDS011;2994;51.220;4.412;2023-03-21T02:17:40;9.43;;;6.20;;
5937;SDS011;2994;51.220;4.412;2023-03-21T02:28:56;9.40;;;5.63;;
5937;SDS011;2994;51.220;4.412;2023-03-21T02:31:38;8.03;;;5.50;;
5937;SDS011;2994;51.220;4.412;2023-03-21T02:39:54;8.43;;;5.47;;
5937;SDS011;2994;51.220;4.412;2023-03-21T02:42:29;11.27;;;6.13;;
5937;SDS011;2994;51.220;4.412;2023-03-21T02:52:40;7.17;;;6.03;;
5937;SDS011;2994;51.220;4.412;2023-03-21T02:55:10;8.90;;;5.60;;
5937;SDS011;2994;51.220;4.412;2023-03-21T02:57:40;10.43;;;6.03;;
5937;SDS011;2994;51.220;4.412;2023-03-21T03:00:07;11.80;;;6.50;;
5937;SDS011;2994;51.220;4.412;2023-03-21T03:02:36;7.23;;;5.80;;
5937;SDS011;2994;51.220;4.412;2023-03-21T03:05:11;9.47;;;5.73;;
5937;SDS011;2994;51.220;4.412;2023-03-21T03:10:49;9.10;;;6.40;;
5937;SDS011;2994;51.220;4.412;2023-03-21T03:13:24;8.50;;;5.70;;
5937;SDS011;2994;51.220;4.412;2023-03-21T03:16:18;6.57;;;5.60;;
5937;SDS011;2994;51.220;4.412;2023-03-21T03:18:55;10.50;;;5.80;;
5937;SDS011;2994;51.220;4.412;2023-03-21T03:24:06;6.83;;;5.13;;
5937;SDS011;2994;51.220;4.412;2023-03-21T03:26:56;10.07;;;5.53;;
5937;SDS011;2994;51.220;4.412;2023-03-21T03:29:48;10.73;;;6.47;;
5937;SDS011;2994;51.220;4.412;2023-03-21T03:32:23;8.67;;;5.70;;
5937;SDS011;2994;51.220;4.412;2023-03-21T03:34:54;11.93;;;6.07;;
5937;SDS011;2994;51.220;4.412;2023-03-21T03:37:22;6.70;;;5.47;;
5937;SDS011;2994;51.220;4.412;2023-03-21T03:45:07;11.07;;;6.10;;
5937;SDS011;2994;51.220;4.412;2023-03-21T03:47:46;7.70;;;5.70;;
5937;SDS011;2994;51.220;4.412;2023-03-21T03:50:16;7.40;;;5.83;;
5937;SDS011;2994;51.220;4.412;2023-03-21T03:52:54;8.90;;;5.83;;
5937;SDS011;2994;51.220;4.412;2023-03-21T03:55:26;11.37;;;5.97;;
5937;SDS011;2994;51.220;4.412;2023-03-21T03:57:58;9.70;;;5.30;;
5937;SDS011;2994;51.220;4.412;2023-03-21T04:00:24;7.13;;;5.30;;
5937;SDS011;2994;51.220;4.412;2023-03-21T04:02:51;8.20;;;6.43;;
5937;SDS011;2994;51.220;4.412;2023-03-21T04:05:17;7.10;;;5.63;;
5937;SDS011;2994;51.220;4.412;2023-03-21T04:07:45;7.13;;;5.23;;
5937;SDS011;2994;51.220;4.412;2023-03-21T04:10:16;10.33;;;5.60;;
5937;SDS011;2994;51.220;4.412;2023-03-21T04:12:43;7.03;;;5.40;;
5937;SDS011;2994;51.220;4.412;2023-03-21T04:15:08;8.07;;;6.00;;
5937;SDS011;2994;51.220;4.412;2023-03-21T04:17:34;8.60;;;5.50;;
5937;SDS011;2994;51.220;4.412;2023-03-21T04:20:00;9.30;;;6.30;;
5937;SDS011;2994;51.220;4.412;2023-03-21T04:22:28;5.70;;;4.90;;
5937;SDS011;2994;51.220;4.412;2023-03-21T04:24:53;13.50;;;6.20;;
5937;SDS011;2994;51.220;4.412;2023-03-21T04:27:19;7.23;;;5.60;;
5937;SDS011;2994;51.220;4.412;2023-03-21T04:29:44;9.40;;;6.00;;
5937;SDS011;2994;51.220;4.412;2023-03-21T04:32:10;7.43;;;4.60;;
5937;SDS011;2994;51.220;4.412;2023-03-21T04:34:40;7.20;;;5.57;;
5937;SDS011;2994;51.220;4.412;2023-03-21T04:37:08;9.57;;;5.97;;
5937;SDS011;2994;51.220;4.412;2023-03-21T04:39:36;7.97;;;5.40;;
5937;SDS011;2994;51.220;4.412;2023-03-21T04:42:02;7.60;;;5.80;;
5937;SDS011;2994;51.220;4.412;2023-03-21T04:44:28;6.90;;;5.87;;
5937;SDS011;2994;51.220;4.412;2023-03-21T04:46:54;12.03;;;6.07;;
5937;SDS011;2994;51.220;4.412;2023-03-21T04:49:20;7.80;;;5.77;;
5937;SDS011;2994;51.220;4.412;2023-03-21T04:51:45;11.93;;;5.73;;
5937;SDS011;2994;51.220;4.412;2023-03-21T04:54:11;7.07;;;5.10;;
5937;SDS011;2994;51.220;4.412;2023-03-21T04:56:37;6.73;;;5.30;;
5937;SDS011;2994;51.220;4.412;2023-03-21T04:59:11;9.90;;;5.20;;
5937;SDS011;2994;51.220;4.412;2023-03-21T05:01:38;10.43;;;6.20;;
5937;SDS011;2994;51.220;4.412;2023-03-21T05:04:05;11.93;;;6.50;;
5937;SDS011;2994;51.220;4.412;2023-03-21T05:06:30;8.43;;;5.90;;
5937;SDS011;2994;51.220;4.412;2023-03-21T05:08:57;10.13;;;5.90;;
5937;SDS011;2994;51.220;4.412;2023-03-21T05:11:29;13.63;;;7.13;;
5937;SDS011;2994;51.220;4.412;2023-03-21T05:13:57;13.23;;;7.43;;
5937;SDS011;2994;51.220;4.412;2023-03-21T05:16:22;11.80;;;7.13;;
5937;SDS011;2994;51.220;4.412;2023-03-21T05:18:51;10.10;;;6.10;;
5937;SDS011;2994;51.220;4.412;2023-03-21T05:21:18;13.93;;;7.30;;
5937;SDS011;2994;51.220;4.412;2023-03-21T05:23:44;11.40;;;6.63;;
5937;SDS011;2994;51.220;4.412;2023-03-21T05:26:18;10.30;;;5.63;;
5937;SDS011;2994;51.220;4.412;2023-03-21T05:28:45;9.50;;;6.13;;
5937;SDS011;2994;51.220;4.412;2023-03-21T05:31:12;13.17;;;6.83;;
5937;SDS011;2994;51.220;4.412;2023-03-21T05:33:42;12.53;;;7.27;;
5937;SDS011;2994;51.220;4.412;2023-03-21T05:36:08;11.83;;;6.87;;
5937;SDS011;2994;51.220;4.412;2023-03-21T05:38:34;9.40;;;6.97;;
5937;SDS011;2994;51.220;4.412;2023-03-21T05:41:00;10.90;;;7.10;;
5937;SDS011;2994;51.220;4.412;2023-03-21T05:43:25;9.17;;;6.50;;
5937;SDS011;2994;51.220;4.412;2023-03-21T05:45:51;13.20;;;7.73;;
5937;SDS011;2994;51.220;4.412;2023-03-21T05:48:17;11.57;;;7.00;;
5937;SDS011;2994;51.220;4.412;2023-03-21T05:50:43;8.30;;;6.00;;
5937;SDS011;2994;51.220;4.412;2023-03-21T05:53:08;10.57;;;6.97;;
5937;SDS011;2994;51.220;4.412;2023-03-21T05:55:34;8.10;;;7.30;;
5937;SDS011;2994;51.220;4.412;2023-03-21T05:58:00;12.50;;;7.53;;
5937;SDS011;2994;51.220;4.412;2023-03-21T06:00:26;9.37;;;7.50;;
5937;SDS011;2994;51.220;4.412;2023-03-21T06:02:52;9.47;;;6.40;;
5937;SDS011;2994;51.220;4.412;2023-03-21T06:05:17;8.77;;;6.50;;
5937;SDS011;2994;51.220;4.412;2023-03-21T06:07:42;12.20;;;8.20;;
5937;SDS011;2994;51.220;4.412;2023-03-21T06:10:08;10.00;;;7.53;;
5937;SDS011;2994;51.220;4.412;2023-03-21T06:12:34;16.37;;;10.80;;
5937;SDS011;2994;51.220;4.412;2023-03-21T06:15:00;10.17;;;7.90;;
5937;SDS011;2994;51.220;4.412;2023-03-21T06:17:26;12.73;;;7.87;;
5937;SDS011;2994;51.220;4.412;2023-03-21T06:19:51;14.00;;;7.67;;
5937;SDS011;2994;51.220;4.412;2023-03-21T06:22:17;9.27;;;6.23;;
5937;SDS011;2994;51.220;4.412;2023-03-21T06:24:42;10.77;;;6.77;;
5937;SDS011;2994;51.220;4.412;2023-03-21T06:27:08;8.60;;;7.07;;
5937;SDS011;2994;51.220;4.412;2023-03-21T06:29:33;11.30;;;6.50;;
5937;SDS011;2994;51.220;4.412;2023-03-21T06:31:59;9.73;;;7.23;;
5937;SDS011;2994;51.220;4.412;2023-03-21T06:34:24;10.10;;;7.47;;
5937;SDS011;2994;51.220;4.412;2023-03-21T06:36:51;12.80;;;7.97;;
5937;SDS011;2994;51.220;4.412;2023-03-21T06:39:18;11.73;;;7.80;;
5937;SDS011;2994;51.220;4.412;2023-03-21T06:41:44;8.50;;;6.80;;
5937;SDS011;2994;51.220;4.412;2023-03-21T06:44:10;12.20;;;8.23;;
5937;SDS011;2994;51.220;4.412;2023-03-21T06:46:35;15.50;;;9.40;;
5937;SDS011;2994;51.220;4.412;2023-03-21T06:49:01;17.20;;;8.37;;
5937;SDS011;2994;51.220;4.412;2023-03-21T06:51:26;17.33;;;8.67;;
5937;SDS011;2994;51.220;4.412;2023-03-21T06:53:52;12.27;;;7.73;;
5937;SDS011;2994;51.220;4.412;2023-03-21T06:56:17;12.93;;;8.40;;
5937;SDS011;2994;51.220;4.412;2023-03-21T06:58:43;12.77;;;8.10;;
5937;SDS011;2994;51.220;4.412;2023-03-21T07:01:09;11.83;;;7.30;;
5937;SDS011;2994;51.220;4.412;2023-03-21T07:03:37;17.70;;;9.07;;
5937;SDS011;2994;51.220;4.412;2023-03-21T07:06:07;14.20;;;8.37;;
5937;SDS011;2994;51.220;4.412;2023-03-21T07:08:38;15.83;;;7.90;;
5937;SDS011;2994;51.220;4.412;2023-03-21T07:11:05;11.50;;;8.10;;
5937;SDS011;2994;51.220;4.412;2023-03-21T07:13:31;9.43;;;6.40;;
5937;SDS011;2994;51.220;4.412;2023-03-21T07:15:56;10.10;;;7.03;;
5937;SDS011;2994;51.220;4.412;2023-03-21T07:18:22;14.70;;;7.53;;
5937;SDS011;2994;51.220;4.412;2023-03-21T07:20:48;12.73;;;9.40;;
5937;SDS011;2994;51.220;4.412;2023-03-21T07:23:18;15.37;;;7.70;;
5937;SDS011;2994;51.220;4.412;2023-03-21T07:25:49;13.63;;;8.63;;
5937;SDS011;2994;51.220;4.412;2023-03-21T07:28:15;10.60;;;7.70;;
5937;SDS011;2994;51.220;4.412;2023-03-21T07:30:40;9.60;;;7.00;;
5937;SDS011;2994;51.220;4.412;2023-03-21T07:33:06;9.60;;;6.93;;
5937;SDS011;2994;51.220;4.412;2023-03-21T07:35:32;18.67;;;8.47;;
5937;SDS011;2994;51.220;4.412;2023-03-21T07:37:58;9.93;;;6.73;;
5937;SDS011;2994;51.220;4.412;2023-03-21T07:40:23;9.20;;;6.40;;
5937;SDS011;2994;51.220;4.412;2023-03-21T07:42:49;9.33;;;6.47;;
5937;SDS011;2994;51.220;4.412;2023-03-21T07:45:17;12.20;;;6.73;;
5937;SDS011;2994;51.220;4.412;2023-03-21T07:47:46;8.53;;;7.10;;
5937;SDS011;2994;51.220;4.412;2023-03-21T07:50:12;13.37;;;7.00;;
5937;SDS011;2994;51.220;4.412;2023-03-21T07:52:41;9.93;;;6.37;;
5937;SDS011;2994;51.220;4.412;2023-03-21T07:55:07;9.90;;;6.50;;
5937;SDS011;2994;51.220;4.412;2023-03-21T07:57:32;8.90;;;6.10;;
5937;SDS011;2994;51.220;4.412;2023-03-21T07:59:58;8.93;;;5.80;;
5937;SDS011;2994;51.220;4.412;2023-03-21T08:02:24;12.80;;;7.10;;
5937;SDS011;2994;51.220;4.412;2023-03-21T08:04:49;12.40;;;6.73;;
5937;SDS011;2994;51.220;4.412;2023-03-21T08:07:21;9.30;;;6.67;;
5937;SDS011;2994;51.220;4.412;2023-03-21T08:09:46;12.47;;;7.20;;
5937;SDS011;2994;51.220;4.412;2023-03-21T08:12:12;10.40;;;7.10;;
5937;SDS011;2994;51.220;4.412;2023-03-21T08:14:37;8.13;;;6.13;;
5937;SDS011;2994;51.220;4.412;2023-03-21T08:17:03;6.67;;;5.50;;
5937;SDS011;2994;51.220;4.412;2023-03-21T08:19:30;6.60;;;5.47;;
5937;SDS011;2994;51.220;4.412;2023-03-21T08:21:55;7.17;;;5.93;;
5937;SDS011;2994;51.220;4.412;2023-03-21T08:24:23;9.80;;;6.03;;
5937;SDS011;2994;51.220;4.412;2023-03-21T08:26:50;10.90;;;6.13;;
5937;SDS011;2994;51.220;4.412;2023-03-21T08:29:16;8.20;;;5.60;;
5937;SDS011;2994;51.220;4.412;2023-03-21T08:31:41;7.37;;;5.80;;
5937;SDS011;2994;51.220;4.412;2023-03-21T08:34:07;7.17;;;5.00;;
5937;SDS011;2994;51.220;4.412;2023-03-21T08:36:34;7.83;;;6.27;;
5937;SDS011;2994;51.220;4.412;2023-03-21T08:39:01;7.50;;;6.50;;
5937;SDS011;2994;51.220;4.412;2023-03-21T08:41:30;8.40;;;5.50;;
5937;SDS011;2994;51.220;4.412;2023-03-21T08:43:57;9.53;;;5.33;;
5937;SDS011;2994;51.220;4.412;2023-03-21T08:46:22;10.20;;;5.97;;
5937;SDS011;2994;51.220;4.412;2023-03-21T08:48:47;7.23;;;5.43;;
5937;SDS011;2994;51.220;4.412;2023-03-21T08:51:13;9.97;;;5.73;;
5937;SDS011;2994;51.220;4.412;2023-03-21T08:53:39;8.97;;;5.50;;
5937;SDS011;2994;51.220;4.412;2023-03-21T08:56:05;6.63;;;5.03;;
5937;SDS011;2994;51.220;4.412;2023-03-21T08:58:31;9.57;;;5.83;;
5937;SDS011;2994;51.220;4.412;2023-03-21T09:00:57;9.30;;;5.73;;
5937;SDS011;2994;51.220;4.412;2023-03-21T09:03:23;8.03;;;5.40;;
5937;SDS011;2994;51.220;4.412;2023-03-21T09:05:48;10.07;;;4.90;;
5937;SDS011;2994;51.220;4.412;2023-03-21T09:08:17;8.93;;;5.20;;
5937;SDS011;2994;51.220;4.412;2023-03-21T09:10:47;14.40;;;5.73;;
5937;SDS011;2994;51.220;4.412;2023-03-21T09:13:19;12.77;;;6.80;;
5937;SDS011;2994;51.220;4.412;2023-03-21T09:15:44;5.60;;;5.07;;
5937;SDS011;2994;51.220;4.412;2023-03-21T09:18:10;12.07;;;5.50;;
5937;SDS011;2994;51.220;4.412;2023-03-21T09:20:40;5.30;;;4.13;;
5937;SDS011;2994;51.220;4.412;2023-03-21T09:23:07;6.70;;;5.70;;
5937;SDS011;2994;51.220;4.412;2023-03-21T09:25:34;6.73;;;4.43;;
5937;SDS011;2994;51.220;4.412;2023-03-21T09:28:00;8.43;;;4.67;;
5937;SDS011;2994;51.220;4.412;2023-03-21T09:30:29;10.57;;;5.40;;
5937;SDS011;2994;51.220;4.412;2023-03-21T09:32:57;9.83;;;5.33;;
5937;SDS011;2994;51.220;4.412;2023-03-21T09:35:24;6.60;;;4.83;;
5937;SDS011;2994;51.220;4.412;2023-03-21T09:37:51;8.27;;;5.60;;
5937;SDS011;2994;51.220;4.412;2023-03-21T09:40:18;8.20;;;5.50;;
5937;SDS011;2994;51.220;4.412;2023-03-21T09:45:48;6.33;;;4.70;;
5937;SDS011;2994;51.220;4.412;2023-03-21T09:48:23;13.80;;;4.87;;
5937;SDS011;2994;51.220;4.412;2023-03-21T09:51:00;8.80;;;4.33;;
5937;SDS011;2994;51.220;4.412;2023-03-21T09:53:34;8.40;;;4.50;;
5937;SDS011;2994;51.220;4.412;2023-03-21T09:56:04;7.90;;;4.90;;
5937;SDS011;2994;51.220;4.412;2023-03-21T09:58:39;6.10;;;4.27;;
5937;SDS011;2994;51.220;4.412;2023-03-21T10:01:17;10.13;;;5.17;;
5937;SDS011;2994;51.220;4.412;2023-03-21T10:03:51;6.20;;;4.90;;
5937;SDS011;2994;51.220;4.412;2023-03-21T10:06:18;6.80;;;4.77;;
5937;SDS011;2994;51.220;4.412;2023-03-21T10:08:53;5.90;;;4.30;;
5937;SDS011;2994;51.220;4.412;2023-03-21T10:14:30;9.10;;;4.73;;
5937;SDS011;2994;51.220;4.412;2023-03-21T10:17:02;8.00;;;4.20;;
5937;SDS011;2994;51.220;4.412;2023-03-21T10:19:37;7.17;;;4.50;;
5937;SDS011;2994;51.220;4.412;2023-03-21T10:22:02;5.53;;;4.10;;
5937;SDS011;2994;51.220;4.412;2023-03-21T10:24:28;7.10;;;4.70;;
5937;SDS011;2994;51.220;4.412;2023-03-21T10:27:00;7.90;;;4.50;;
5937;SDS011;2994;51.220;4.412;2023-03-21T10:29:28;7.10;;;4.20;;
5937;SDS011;2994;51.220;4.412;2023-03-21T10:32:08;4.87;;;4.33;;
5937;SDS011;2994;51.220;4.412;2023-03-21T10:34:36;7.17;;;5.20;;
5937;SDS011;2994;51.220;4.412;2023-03-21T10:37:06;5.60;;;4.77;;
5937;SDS011;2994;51.220;4.412;2023-03-21T10:39:39;8.43;;;4.90;;
5937;SDS011;2994;51.220;4.412;2023-03-21T10:42:48;6.90;;;5.27;;
5937;SDS011;2994;51.220;4.412;2023-03-21T10:44:57;7.70;;;4.73;;
5937;SDS011;2994;51.220;4.412;2023-03-21T10:47:24;6.57;;;4.03;;
5937;SDS011;2994;51.220;4.412;2023-03-21T10:49:51;6.37;;;4.80;;
5937;SDS011;2994;51.220;4.412;2023-03-21T10:52:19;8.13;;;4.93;;
5937;SDS011;2994;51.220;4.412;2023-03-21T10:54:47;8.40;;;5.07;;
5937;SDS011;2994;51.220;4.412;2023-03-21T10:57:31;9.83;;;5.00;;
5937;SDS011;2994;51.220;4.412;2023-03-21T10:59:58;5.90;;;4.03;;
5937;SDS011;2994;51.220;4.412;2023-03-21T11:02:33;7.60;;;4.17;;
5937;SDS011;2994;51.220;4.412;2023-03-21T11:05:07;5.23;;;4.60;;
5937;SDS011;2994;51.220;4.412;2023-03-21T11:07:44;6.10;;;4.50;;
5937;SDS011;2994;51.220;4.412;2023-03-21T11:10:25;10.97;;;4.60;;
5937;SDS011;2994;51.220;4.412;2023-03-21T11:12:54;6.20;;;5.00;;
5937;SDS011;2994;51.220;4.412;2023-03-21T11:15:40;5.40;;;4.80;;
5937;SDS011;2994;51.220;4.412;2023-03-21T11:18:17;9.33;;;4.63;;
5937;SDS011;2994;51.220;4.412;2023-03-21T11:21:04;7.67;;;5.27;;
5937;SDS011;2994;51.220;4.412;2023-03-21T11:23:33;8.67;;;4.50;;
5937;SDS011;2994;51.220;4.412;2023-03-21T11:26:02;9.20;;;5.13;;
5937;SDS011;2994;51.220;4.412;2023-03-21T11:28:38;5.93;;;3.90;;
5937;SDS011;2994;51.220;4.412;2023-03-21T11:31:05;6.50;;;4.77;;
5937;SDS011;2994;51.220;4.412;2023-03-21T11:33:46;8.93;;;5.67;;
5937;SDS011;2994;51.220;4.412;2023-03-21T11:38:43;6.00;;;4.90;;
5937;SDS011;2994;51.220;4.412;2023-03-21T11:41:20;6.67;;;4.77;;
5937;SDS011;2994;51.220;4.412;2023-03-21T11:43:51;8.40;;;5.03;;
5937;SDS011;2994;51.220;4.412;2023-03-21T11:46:21;7.83;;;5.23;;
5937;SDS011;2994;51.220;4.412;2023-03-21T11:48:49;7.27;;;5.53;;
5937;SDS011;2994;51.220;4.412;2023-03-21T11:51:29;5.43;;;4.70;;
5937;SDS011;2994;51.220;4.412;2023-03-21T11:56:44;5.80;;;4.77;;
5937;SDS011;2994;51.220;4.412;2023-03-21T12:01:59;7.00;;;4.90;;
5937;SDS011;2994;51.220;4.412;2023-03-21T12:10:26;4.93;;;4.33;;
5937;SDS011;2994;51.220;4.412;2023-03-21T12:13:14;9.07;;;5.33;;
5937;SDS011;2994;51.220;4.412;2023-03-21T12:16:00;8.20;;;5.20;;
5937;SDS011;2994;51.220;4.412;2023-03-21T12:24:32;6.77;;;6.07;;
5937;SDS011;2994;51.220;4.412;2023-03-21T12:35:23;7.80;;;5.70;;
5937;SDS011;2994;51.220;4.412;2023-03-21T12:38:02;6.00;;;5.50;;
5937;SDS011;2994;51.220;4.412;2023-03-21T12:43:34;5.90;;;5.30;;
5937;SDS011;2994;51.220;4.412;2023-03-21T12:46:09;6.73;;;6.13;;
5937;SDS011;2994;51.220;4.412;2023-03-21T12:49:01;6.60;;;5.97;;
5937;SDS011;2994;51.220;4.412;2023-03-21T12:51:38;7.00;;;5.93;;
5937;SDS011;2994;51.220;4.412;2023-03-21T13:02:41;5.53;;;5.03;;
5937;SDS011;2994;51.220;4.412;2023-03-21T13:05:21;5.80;;;5.20;;
5937;SDS011;2994;51.220;4.412;2023-03-21T13:10:44;10.23;;;5.30;;
5937;SDS011;2994;51.220;4.412;2023-03-21T13:16:59;7.60;;;5.53;;
5937;SDS011;2994;51.220;4.412;2023-03-21T13:27:26;7.87;;;6.10;;
5937;SDS011;2994;51.220;4.412;2023-03-21T13:30:00;5.03;;;4.53;;
5937;SDS011;2994;51.220;4.412;2023-03-21T13:32:31;5.13;;;4.50;;
5937;SDS011;2994;51.220;4.412;2023-03-21T13:40:40;5.63;;;5.00;;
5937;SDS011;2994;51.220;4.412;2023-03-21T13:43:49;6.20;;;4.93;;
5937;SDS011;2994;51.220;4.412;2023-03-21T13:46:13;6.03;;;4.90;;
5937;SDS011;2994;51.220;4.412;2023-03-21T13:49:01;8.17;;;5.80;;
5937;SDS011;2994;51.220;4.412;2023-03-21T13:51:49;5.30;;;4.80;;
5937;SDS011;2994;51.220;4.412;2023-03-21T13:56:58;8.37;;;5.57;;
5937;SDS011;2994;51.220;4.412;2023-03-21T14:01:57;8.70;;;5.70;;
5937;SDS011;2994;51.220;4.412;2023-03-21T14:04:25;5.10;;;4.40;;
5937;SDS011;2994;51.220;4.412;2023-03-21T14:07:07;5.73;;;5.13;;
5937;SDS011;2994;51.220;4.412;2023-03-21T14:09:43;8.07;;;5.10;;
5937;SDS011;2994;51.220;4.412;2023-03-21T14:12:18;4.97;;;4.53;;
5937;SDS011;2994;51.220;4.412;2023-03-21T14:15:00;6.07;;;4.90;;
5937;SDS011;2994;51.220;4.412;2023-03-21T14:17:30;6.63;;;4.87;;
5937;SDS011;2994;51.220;4.412;2023-03-21T14:20:01;4.70;;;4.30;;
5937;SDS011;2994;51.220;4.412;2023-03-21T14:22:37;8.20;;;5.47;;
5937;SDS011;2994;51.220;4.412;2023-03-21T14:25:05;6.77;;;5.33;;
5937;SDS011;2994;51.220;4.412;2023-03-21T14:27:37;7.20;;;4.40;;
5937;SDS011;2994;51.220;4.412;2023-03-21T14:30:05;5.53;;;4.77;;
5937;SDS011;2994;51.220;4.412;2023-03-21T14:32:35;7.03;;;4.67;;
5937;SDS011;2994;51.220;4.412;2023-03-21T14:35:01;5.30;;;4.80;;
5937;SDS011;2994;51.220;4.412;2023-03-21T14:37:31;7.10;;;5.53;;
5937;SDS011;2994;51.220;4.412;2023-03-21T14:40:03;7.73;;;5.70;;
5937;SDS011;2994;51.220;4.412;2023-03-21T14:42:35;11.30;;;5.70;;
5937;SDS011;2994;51.220;4.412;2023-03-21T14:45:21;6.83;;;5.43;;
5937;SDS011;2994;51.220;4.412;2023-03-21T14:50:52;7.00;;;4.60;;
5937;SDS011;2994;51.220;4.412;2023-03-21T14:53:29;6.83;;;6.10;;
5937;SDS011;2994;51.220;4.412;2023-03-21T14:56:15;6.20;;;5.40;;
5937;SDS011;2994;51.220;4.412;2023-03-21T14:58:46;7.37;;;5.63;;
5937;SDS011;2994;51.220;4.412;2023-03-21T15:01:16;12.00;;;6.90;;
5937;SDS011;2994;51.220;4.412;2023-03-21T15:03:54;7.20;;;5.30;;
5937;SDS011;2994;51.220;4.412;2023-03-21T15:06:22;6.97;;;6.30;;
5937;SDS011;2994;51.220;4.412;2023-03-21T15:09:05;6.77;;;6.17;;
5937;SDS011;2994;51.220;4.412;2023-03-21T15:11:32;6.23;;;5.63;;
5937;SDS011;2994;51.220;4.412;2023-03-21T15:14:00;6.80;;;6.20;;
5937;SDS011;2994;51.220;4.412;2023-03-21T15:16:28;6.30;;;5.70;;
5937;SDS011;2994;51.220;4.412;2023-03-21T15:18:55;6.90;;;6.17;;
5937;SDS011;2994;51.220;4.412;2023-03-21T15:21:25;8.40;;;6.50;;
5937;SDS011;2994;51.220;4.412;2023-03-21T15:23:55;6.90;;;6.17;;
5937;SDS011;2994;51.220;4.412;2023-03-21T15:26:26;7.30;;;6.60;;
5937;SDS011;2994;51.220;4.412;2023-03-21T15:28:56;8.33;;;6.33;;
5937;SDS011;2994;51.220;4.412;2023-03-21T15:31:23;7.40;;;6.30;;
5937;SDS011;2994;51.220;4.412;2023-03-21T15:33:53;8.57;;;6.77;;
5937;SDS011;2994;51.220;4.412;2023-03-21T15:36:26;8.57;;;5.80;;
5937;SDS011;2994;51.220;4.412;2023-03-21T15:38:56;9.90;;;5.20;;
5937;SDS011;2994;51.220;4.412;2023-03-21T15:41:27;6.30;;;4.80;;
5937;SDS011;2994;51.220;4.412;2023-03-21T15:46:39;6.17;;;5.57;;
5937;SDS011;2994;51.220;4.412;2023-03-21T15:52:13;5.90;;;4.87;;
5937;SDS011;2994;51.220;4.412;2023-03-21T15:54:47;6.10;;;5.50;;
5937;SDS011;2994;51.220;4.412;2023-03-21T15:57:20;6.03;;;5.10;;
5937;SDS011;2994;51.220;4.412;2023-03-21T15:59:49;6.73;;;5.80;;
5937;SDS011;2994;51.220;4.412;2023-03-21T16:02:19;5.33;;;4.80;;
5937;SDS011;2994;51.220;4.412;2023-03-21T16:07:24;7.77;;;5.77;;
5937;SDS011;2994;51.220;4.412;2023-03-21T16:09:55;7.40;;;5.27;;
5937;SDS011;2994;51.220;4.412;2023-03-21T16:12:23;5.40;;;4.80;;
5937;SDS011;2994;51.220;4.412;2023-03-21T16:14:49;6.40;;;5.37;;
5937;SDS011;2994;51.220;4.412;2023-03-21T16:19:57;6.60;;;5.30;;
5937;SDS011;2994;51.220;4.412;2023-03-21T16:22:24;6.20;;;5.03;;
5937;SDS011;2994;51.220;4.412;2023-03-21T16:24:50;5.73;;;5.23;;
5937;SDS011;2994;51.220;4.412;2023-03-21T16:27:16;4.77;;;4.37;;
5937;SDS011;2994;51.220;4.412;2023-03-21T16:29:43;9.33;;;5.37;;
5937;SDS011;2994;51.220;4.412;2023-03-21T16:32:18;6.47;;;5.30;;
5937;SDS011;2994;51.220;4.412;2023-03-21T16:34:44;6.90;;;6.20;;
5937;SDS011;2994;51.220;4.412;2023-03-21T16:37:10;6.97;;;5.43;;
5937;SDS011;2994;51.220;4.412;2023-03-21T16:39:37;6.10;;;5.40;;
5937;SDS011;2994;51.220;4.412;2023-03-21T16:42:02;6.67;;;5.60;;
5937;SDS011;2994;51.220;4.412;2023-03-21T16:44:30;6.83;;;5.20;;
5937;SDS011;2994;51.220;4.412;2023-03-21T16:46:56;9.90;;;5.20;;
5937;SDS011;2994;51.220;4.412;2023-03-21T16:49:22;6.63;;;5.30;;
5937;SDS011;2994;51.220;4.412;2023-03-21T16:51:50;6.20;;;5.10;;
5937;SDS011;2994;51.220;4.412;2023-03-21T16:54:17;5.00;;;4.07;;
5937;SDS011;2994;51.220;4.412;2023-03-21T16:56:46;7.43;;;4.60;;
5937;SDS011;2994;51.220;4.412;2023-03-21T16:59:14;5.60;;;4.47;;
5937;SDS011;2994;51.220;4.412;2023-03-21T17:01:40;4.90;;;4.40;;
5937;SDS011;2994;51.220;4.412;2023-03-21T17:04:10;5.80;;;4.73;;
5937;SDS011;2994;51.220;4.412;2023-03-21T17:06:39;5.63;;;4.73;;
5937;SDS011;2994;51.220;4.412;2023-03-21T17:09:12;6.30;;;4.80;;
5937;SDS011;2994;51.220;4.412;2023-03-21T17:11:39;8.17;;;4.93;;
5937;SDS011;2994;51.220;4.412;2023-03-21T17:14:08;8.40;;;6.00;;
5937;SDS011;2994;51.220;4.412;2023-03-21T17:16:34;5.97;;;4.57;;
5937;SDS011;2994;51.220;4.412;2023-03-21T17:19:00;5.40;;;4.80;;
5937;SDS011;2994;51.220;4.412;2023-03-21T17:21:27;6.70;;;5.53;;
5937;SDS011;2994;51.220;4.412;2023-03-21T17:23:54;5.13;;;4.50;;
5937;SDS011;2994;51.220;4.412;2023-03-21T17:26:26;5.93;;;5.33;;